Flight Track Log - Related Links

Times and Time Zones

All times are in EDT time to prevent confusion due to time zone crossing. See the SWA378 flight status page for this flight to view local times or setup timezone preferences in your user account.

Time Position Orientation Groundspeed Altitude Reporting Facility
EDT Latitude Longitude Course Direction KTS MPH feet Rate Location/Type
Thu 10:12:56 PM 39.1747 -76.7242 195° South 160 184 2,100  Level Washington Center
Thu 10:13:57 PM 39.1372 -76.7369 195° South 177 204 3,900 2,420 Climbing Washington Center
Thu 10:14:55 PM 39.1339 -76.6511 93° East 120 138 6,900 3,277 Climbing Washington Center
Thu 10:15:56 PM 39.1389 -76.5497 86° East 205 236 10,400 3,049 Climbing Washington Center
Thu 10:16:57 PM 39.1397 -76.4319 89° East 289 333 13,100 2,678 Climbing Washington Center
Thu 10:17:57 PM 39.1447 -76.3036 87° East 316 364 15,800 2,847 Climbing Washington Center
Thu 10:18:55 PM 39.1558 -76.1672 84° East 346 398 18,700 2,773 Climbing Washington Center
Thu 10:19:56 PM 39.1753 -76.0306 80° East 377 434 21,300 2,410 Climbing Washington Center
Thu 10:20:57 PM 39.1964 -75.8861 79° East 394 453 23,600 2,571 Climbing Washington Center
Thu 10:21:55 PM 39.2739 -75.7739 48° Northeast 391 450 26,400 2,672 Climbing Washington Center
Thu 10:22:56 PM 39.3550 -75.6722 44° Northeast 391 450 28,900 1,289 Climbing Washington Center
Thu 10:23:56 PM 39.4364 -75.5672 45° Northeast 397 457 29,000 34 Climbing Washington Center
Thu 10:25:50 PM 39.5817 -75.3769 45° Northeast 404 465 29,000  Level New York Center
Thu 10:26:50 PM 39.6628 -75.2717 45° Northeast 409 471 29,000  Level New York Center
Thu 10:27:48 PM 39.7447 -75.1472 49° Northeast 416 479 29,000  Level New York Center
Thu 10:28:49 PM 39.8236 -75.0389 47° Northeast 421 484 29,000  Level New York Center
Thu 10:29:50 PM 39.9006 -74.9325 47° Northeast 421 484 29,000  Level New York Center
Thu 10:30:51 PM 39.9794 -74.8181 48° Northeast 421 484 29,000  Level New York Center
Thu 10:31:50 PM 40.0575 -74.7303 41° Northeast 410 472 29,000  Level New York Center
Thu 10:32:49 PM 40.1736 -74.6853 16° North 392 451 29,000  Level New York Center
Thu 10:33:50 PM 40.2856 -74.6456 15° North 403 464 29,000  Level New York Center
Thu 10:34:49 PM 40.3972 -74.6053 15° North 409 471 29,000  Level New York Center
Thu 10:35:48 PM 40.5067 -74.5678 15° North 409 471 29,000 -350 Level New York Center
Thu 10:36:49 PM 40.6206 -74.5306 14° North 409 471 28,300 -787 Descending New York Center
Thu 10:37:50 PM 40.7344 -74.4875 16° North 409 471 27,400 -622 Descending New York Center
Thu 10:40:31 PM 41.0142 -74.3906 15° North 418 481 26,000 -380 Descending Boston Center
Thu 10:41:31 PM 41.1525 -74.3478 13° North 413 475 26,000  Level Boston Center
Thu 10:42:31 PM 41.2658 -74.3042 16° North 413 475 26,000  Level Boston Center
Thu 10:43:31 PM 41.3769 -74.2631 16° North 413 475 26,000 -50 Level Boston Center
Thu 10:44:31 PM 41.4672 -74.2297 15° North 419 482 25,900 -1,250 Descending Boston Center
Thu 10:45:31 PM 41.6056 -74.1808 15° North 419 482 23,500 -2,450 Descending Boston Center
Thu 10:46:31 PM 41.7186 -74.1422 14° North 419 482 21,000 -2,483 Descending Boston Center
Thu 10:47:27 PM 41.8067 -74.1083 16° North 407 468 18,700 -2,513 Descending Boston Center
Thu 10:48:28 PM 41.9217 -74.0725 13° North 390 449 16,100 -2,400 Descending Boston Center
Thu 10:49:22 PM 42.0097 -74.0411 15° North 387 445 14,100 -2,390 Descending Boston Center
Thu 10:50:31 PM 42.1272 -73.9964 16° North 378 435 11,200 -1,641 Descending Boston Center
Thu 10:51:30 PM 42.2150 -73.9650 15° North 324 373 10,600 -1,100 Descending Boston Center
Thu 10:52:31 PM 42.2842 -73.9386 16° North 314 361 9,000 -1,884 Descending Boston Center
Thu 10:53:31 PM 42.3742 -73.9042 16° North 284 327 6,800 -2,050 Descending Boston Center
Thu 10:54:31 PM 42.4456 -73.8833 12° North 274 315 4,900 -1,950 Descending Boston Center
Thu 10:55:31 PM 42.5231 -73.8514 17° North 278 320 2,900 -1,200 Descending Boston Center
Thu 10:56:31 PM 42.5919 -73.8247 16° North 273 314 2,500 -300 Descending Boston Center
Thu 10:57:31 PM 42.6611 -73.8008 14° North 256 295 2,300 -732 Descending Boston Center
Thu 10:58:34 PM 42.6964 -73.8044 356° North 138 159 1,000 -968 Descending Boston Center
Thu 10:59:35 PM 42.7361 -73.8111 353° North 128 147 300 -689 Descending Boston Center
Thu 11:03:00 PM 42.7333 -73.8000 10° North  Level FlightAware Approximate

Login

Don't have an account? Register now (free) for customized features, flight alerts, and more!